Time;durP1;ratioP1;P1;durP2;ratioP2;P2;SDS_P1;SDS_P2;PMS_P1;PMS_P2;Temp;Humidity;BMP_temperature;BMP_pressure;BME280_temperature;BME280_humidity;BME280_pressure;Samples;Min_cycle;Max_cycle;Signal;HPM_P1;HPM_P2
2022/09/17 00:02:21;;;;;;;5.18;1.40;;;;;;;;;;5030342;28;20029;-73
2022/09/17 00:04:48;;;;;;;5.90;1.38;;;;;;;;;;5030094;28;20048;-73
2022/09/17 00:07:14;;;;;;;4.13;1.58;;;;;;;;;;5029657;28;20069;-73
2022/09/17 00:09:40;;;;;;;5.57;1.42;;;;;;;;;;5029869;28;20057;-73
2022/09/17 00:12:06;;;;;;;4.10;1.42;;;;;;;;;;5028429;28;20025;-73
2022/09/17 00:14:32;;;;;;;6.80;1.20;;;;;;;;;;5028199;28;20538;-72
2022/09/17 00:16:58;;;;;;;4.47;1.33;;;;;;;;;;5027981;28;20111;-71
2022/09/17 00:19:25;;;;;;;2.97;1.13;;;;;;;;;;5012152;28;20464;-74
2022/09/17 00:21:51;;;;;;;8.40;1.63;;;;;;;;;;5025125;28;20249;-73
2022/09/17 00:24:18;;;;;;;4.85;1.48;;;;;;;;;;5024340;28;20033;-73
2022/09/17 00:26:44;;;;;;;6.80;1.80;;;;;;;;;;5027929;28;20022;-72
2022/09/17 00:29:10;;;;;;;6.63;1.60;;;;;;;;;;5037738;28;20112;-73
2022/09/17 00:31:36;;;;;;;6.53;1.50;;;;;;;;;;5029204;28;20252;-74
2022/09/17 00:34:03;;;;;;;4.50;1.65;;;;;;;;;;5029709;28;20030;-73
2022/09/17 00:36:29;;;;;;;6.50;1.45;;;;;;;;;;5030025;28;20479;-73
2022/09/17 00:38:57;;;;;;;6.35;1.50;;;;;;;;;;5030188;28;20048;-73
2022/09/17 00:41:24;;;;;;;5.72;1.33;;;;;;;;;;5031200;28;20071;-73
2022/09/17 00:43:52;;;;;;;5.65;1.63;;;;;;;;;;5030127;28;20080;-74
2022/09/17 00:46:38;;;;;;;7.25;1.58;;;;;;;;;;5022432;28;20534;-74
2022/09/17 00:49:06;;;;;;;5.95;1.38;;;;;;;;;;5030603;28;20029;-73
2022/09/17 00:51:34;;;;;;;3.97;1.55;;;;;;;;;;5041052;28;20109;-73
2022/09/17 00:54:02;;;;;;;10.07;2.13;;;;;;;;;;5028925;28;20051;-73
2022/09/17 00:56:33;;;;;;;7.70;1.77;;;;;;;;;;5039143;28;20022;-73
2022/09/17 00:59:00;;;;;;;3.80;1.48;;;;;;;;;;5039695;28;20071;-72
2022/09/17 01:01:26;;;;;;;5.25;1.33;;;;;;;;;;5028844;28;20029;-73
2022/09/17 01:03:52;;;;;;;7.38;1.73;;;;;;;;;;5028844;28;20037;-73
2022/09/17 01:06:21;;;;;;;5.57;1.30;;;;;;;;;;5029548;28;20411;-72
2022/09/17 01:08:56;;;;;;;5.15;1.30;;;;;;;;;;5030181;28;20431;-72
2022/09/17 01:11:24;;;;;;;7.70;1.73;;;;;;;;;;5030905;28;20022;-73
2022/09/17 01:14:09;;;;;;;7.15;1.67;;;;;;;;;;5039190;28;20395;-73
2022/09/17 01:17:08;;;;;;;6.32;1.35;;;;;;;;;;5035722;28;20059;-73
2022/09/17 01:19:49;;;;;;;4.88;1.00;;;;;;;;;;4990601;28;20036;-72
2022/09/17 01:22:28;;;;;;;5.43;1.08;;;;;;;;;;5022780;28;20506;-73
2022/09/17 01:25:13;;;;;;;3.50;0.85;;;;;;;;;;5029233;28;20430;-72
2022/09/17 01:27:39;;;;;;;5.65;1.65;;;;;;;;;;5024609;28;20026;-72
2022/09/17 01:30:25;;;;;;;6.78;1.27;;;;;;;;;;5037911;28;20029;-73
2022/09/17 01:32:57;;;;;;;5.18;1.45;;;;;;;;;;5030178;28;20097;-73
2022/09/17 01:35:43;;;;;;;6.60;1.55;;;;;;;;;;5030977;28;20021;-73
2022/09/17 01:38:13;;;;;;;3.80;1.48;;;;;;;;;;5013021;28;20033;-74
2022/09/17 01:40:58;;;;;;;4.95;1.58;;;;;;;;;;5027797;28;20472;-73
2022/09/17 01:43:26;;;;;;;9.90;1.65;;;;;;;;;;5016533;28;20040;-73
2022/09/17 01:45:56;;;;;;;5.38;1.35;;;;;;;;;;5028945;28;20087;-73
2022/09/17 01:48:33;;;;;;;2.10;0.90;;;;;;;;;;5026997;28;20022;-73
2022/09/17 01:51:10;;;;;;;3.67;0.90;;;;;;;;;;5028993;28;20428;-73
2022/09/17 01:53:58;;;;;;;4.55;1.20;;;;;;;;;;5029195;28;20061;-73
2022/09/17 01:56:26;;;;;;;5.10;0.95;;;;;;;;;;5030392;28;20101;-73
2022/09/17 01:58:57;;;;;;;4.05;1.15;;;;;;;;;;5025016;28;20080;-73
2022/09/17 02:01:24;;;;;;;5.65;1.13;;;;;;;;;;5028694;28;20029;-72
2022/09/17 02:03:53;;;;;;;6.63;1.88;;;;;;;;;;5030733;28;20032;-73
2022/09/17 02:06:22;;;;;;;6.28;1.48;;;;;;;;;;5030605;28;20021;-73
2022/09/17 02:08:48;;;;;;;4.70;1.35;;;;;;;;;;5029842;28;20030;-72
2022/09/17 02:11:16;;;;;;;2.67;0.98;;;;;;;;;;5030483;28;20029;-73
2022/09/17 02:13:47;;;;;;;8.85;1.50;;;;;;;;;;5032303;28;20067;-73
2022/09/17 02:16:18;;;;;;;4.25;0.98;;;;;;;;;;5034471;28;20100;-72
2022/09/17 02:18:44;;;;;;;7.50;1.60;;;;;;;;;;5033942;28;20022;-73
2022/09/17 02:21:36;;;;;;;9.02;1.15;;;;;;;;;;5033034;28;20119;-72
2022/09/17 02:24:08;;;;;;;9.05;1.90;;;;;;;;;;5030800;28;20077;-74
2022/09/17 02:26:34;;;;;;;4.15;1.38;;;;;;;;;;5033069;28;20140;-73
2022/09/17 02:29:07;;;;;;;4.82;1.25;;;;;;;;;;5040012;28;20483;-73
2022/09/17 02:31:34;;;;;;;4.97;1.80;;;;;;;;;;5036308;28;20029;-73
2022/09/17 02:34:01;;;;;;;5.85;1.73;;;;;;;;;;5036015;28;20025;-73
2022/09/17 02:36:28;;;;;;;9.77;2.80;;;;;;;;;;5035073;28;20022;-73
2022/09/17 02:38:57;;;;;;;3.47;1.13;;;;;;;;;;5032865;28;20029;-74
2022/09/17 02:41:25;;;;;;;4.88;1.23;;;;;;;;;;5034192;28;20290;-73
2022/09/17 02:43:57;;;;;;;6.30;1.75;;;;;;;;;;5034507;28;20111;-72
2022/09/17 02:46:43;;;;;;;6.05;1.02;;;;;;;;;;5034330;28;20021;-72
2022/09/17 02:49:38;;;;;;;5.47;1.27;;;;;;;;;;5032529;28;20029;-73
2022/09/17 02:52:17;;;;;;;6.60;1.40;;;;;;;;;;4970999;28;20047;-73
2022/09/17 02:55:00;;;;;;;7.78;1.27;;;;;;;;;;5031649;28;20022;-73
2022/09/17 02:58:01;;;;;;;9.73;1.83;;;;;;;;;;5033233;28;20036;-73
2022/09/17 03:00:27;;;;;;;2.35;1.15;;;;;;;;;;5012230;28;20029;-74
2022/09/17 03:02:57;;;;;;;7.32;1.50;;;;;;;;;;5015740;28;20034;-73
2022/09/17 03:05:24;;;;;;;3.97;1.00;;;;;;;;;;5037217;28;20022;-73
2022/09/17 03:07:50;;;;;;;8.35;1.77;;;;;;;;;;5033242;28;20416;-73
2022/09/17 03:10:17;;;;;;;4.57;1.35;;;;;;;;;;5035757;28;20281;-72
2022/09/17 03:12:43;;;;;;;6.43;0.98;;;;;;;;;;5041856;28;20018;-72
2022/09/17 03:15:09;;;;;;;7.20;1.30;;;;;;;;;;5042950;28;20071;-73
2022/09/17 03:17:35;;;;;;;3.53;1.30;;;;;;;;;;5042440;28;20021;-73
2022/09/17 03:20:01;;;;;;;5.15;1.77;;;;;;;;;;5042306;28;20430;-73
2022/09/17 03:22:27;;;;;;;2.58;0.95;;;;;;;;;;5042719;28;20028;-72
2022/09/17 03:24:53;;;;;;;6.80;1.48;;;;;;;;;;5077939;22;20423;-73
2022/09/17 03:27:19;;;;;;;8.52;1.52;;;;;;;;;;5051919;28;20025;-72
2022/09/17 03:29:45;;;;;;;2.60;1.08;;;;;;;;;;5059698;28;20025;-72
2022/09/17 03:32:11;;;;;;;5.07;1.17;;;;;;;;;;5052504;28;20475;-73
2022/09/17 03:34:37;;;;;;;5.53;1.23;;;;;;;;;;5052409;28;20098;-73
2022/09/17 03:37:03;;;;;;;5.60;1.52;;;;;;;;;;5051952;28;20033;-71
2022/09/17 03:39:30;;;;;;;3.47;1.15;;;;;;;;;;5052593;28;20457;-72
2022/09/17 03:41:56;;;;;;;5.88;1.38;;;;;;;;;;5052389;28;20036;-72
2022/09/17 03:44:22;;;;;;;4.30;1.30;;;;;;;;;;5052377;28;20479;-72
2022/09/17 03:46:48;;;;;;;6.65;1.20;;;;;;;;;;5052380;28;20448;-72
2022/09/17 03:49:14;;;;;;;6.18;0.98;;;;;;;;;;5050119;28;20029;-72
2022/09/17 03:51:40;;;;;;;5.18;1.48;;;;;;;;;;5052618;28;20029;-73
2022/09/17 03:54:06;;;;;;;5.20;1.73;;;;;;;;;;5052619;28;20074;-73
2022/09/17 03:56:32;;;;;;;5.88;1.35;;;;;;;;;;5052042;28;20025;-73
2022/09/17 03:58:59;;;;;;;4.43;1.13;;;;;;;;;;5051697;28;20054;-73
2022/09/17 04:01:25;;;;;;;5.85;1.52;;;;;;;;;;5052376;28;20116;-73
2022/09/17 04:03:51;;;;;;;4.45;1.02;;;;;;;;;;5052430;28;20080;-73
2022/09/17 04:06:17;;;;;;;4.38;1.17;;;;;;;;;;5052110;28;20025;-72
2022/09/17 04:08:43;;;;;;;5.95;1.05;;;;;;;;;;5050260;28;20032;-72
2022/09/17 04:11:10;;;;;;;4.72;0.98;;;;;;;;;;5050461;28;20124;-73
2022/09/17 04:13:36;;;;;;;6.47;1.75;;;;;;;;;;5051932;28;20017;-73
2022/09/17 04:16:02;;;;;;;5.88;1.17;;;;;;;;;;5051753;28;20023;-72
2022/09/17 04:18:28;;;;;;;3.33;0.93;;;;;;;;;;5051618;28;20021;-72
2022/09/17 04:20:54;;;;;;;8.40;1.45;;;;;;;;;;5052046;28;20040;-72
2022/09/17 04:23:20;;;;;;;6.20;2.35;;;;;;;;;;5050391;28;20029;-74
2022/09/17 04:25:46;;;;;;;5.43;1.42;;;;;;;;;;5051681;28;20024;-71
2022/09/17 04:28:12;;;;;;;3.35;1.00;;;;;;;;;;5050745;28;20021;-72
2022/09/17 04:30:38;;;;;;;6.20;1.35;;;;;;;;;;5058846;28;20025;-72
2022/09/17 04:33:04;;;;;;;2.45;1.00;;;;;;;;;;5051359;28;20021;-73
2022/09/17 04:35:31;;;;;;;2.45;0.90;;;;;;;;;;5051755;28;20036;-72
2022/09/17 04:37:57;;;;;;;14.02;1.52;;;;;;;;;;5049766;28;20479;-72
2022/09/17 04:40:24;;;;;;;4.25;1.00;;;;;;;;;;5051346;28;20029;-72
2022/09/17 04:42:54;;;;;;;3.80;1.30;;;;;;;;;;5051471;28;20398;-72
2022/09/17 04:45:20;;;;;;;3.83;1.00;;;;;;;;;;5051204;28;20537;-72
2022/09/17 04:47:46;;;;;;;4.47;1.38;;;;;;;;;;5050459;28;20033;-72
2022/09/17 04:50:12;;;;;;;4.20;1.40;;;;;;;;;;5051383;28;20055;-72
2022/09/17 04:52:42;;;;;;;3.55;1.38;;;;;;;;;;5051005;28;20056;-73
2022/09/17 04:55:08;;;;;;;4.70;1.20;;;;;;;;;;5051380;28;20017;-73
2022/09/17 04:57:34;;;;;;;4.28;1.30;;;;;;;;;;5050247;28;20021;-73
2022/09/17 05:00:00;;;;;;;3.25;1.42;;;;;;;;;;5058518;28;20082;-74
2022/09/17 05:02:26;;;;;;;3.47;1.52;;;;;;;;;;5051107;28;20032;-74
2022/09/17 05:04:52;;;;;;;3.55;1.10;;;;;;;;;;5049536;28;20024;-73
2022/09/17 05:07:18;;;;;;;5.88;1.80;;;;;;;;;;5050286;28;20491;-73
2022/09/17 05:09:44;;;;;;;2.95;1.48;;;;;;;;;;5051105;28;20028;-73
2022/09/17 05:12:10;;;;;;;2.38;1.30;;;;;;;;;;5051126;28;20021;-72
2022/09/17 05:14:36;;;;;;;8.43;1.73;;;;;;;;;;5050768;28;20021;-73
2022/09/17 05:17:02;;;;;;;3.15;1.60;;;;;;;;;;5051014;28;20013;-72
2022/09/17 05:19:28;;;;;;;4.55;1.70;;;;;;;;;;5050520;28;20059;-74
2022/09/17 05:21:54;;;;;;;4.05;1.42;;;;;;;;;;5050931;28;20061;-73
2022/09/17 05:24:20;;;;;;;9.57;1.50;;;;;;;;;;5050541;28;20513;-72
2022/09/17 05:26:46;;;;;;;4.53;1.27;;;;;;;;;;5050829;28;20021;-74
2022/09/17 05:29:12;;;;;;;4.40;1.52;;;;;;;;;;5057345;28;20024;-72
2022/09/17 05:31:38;;;;;;;2.13;1.35;;;;;;;;;;5050747;28;20075;-73
2022/09/17 05:34:04;;;;;;;3.60;1.88;;;;;;;;;;5050893;28;20075;-72
2022/09/17 05:36:30;;;;;;;23.42;11.07;;;;;;;;;;5050707;28;20013;-73
2022/09/17 05:38:56;;;;;;;12.43;3.88;;;;;;;;;;5050158;28;20402;-72
2022/09/17 05:41:22;;;;;;;3.92;1.83;;;;;;;;;;5050630;28;20021;-72
2022/09/17 05:43:48;;;;;;;2.63;1.23;;;;;;;;;;5050614;28;20112;-73
2022/09/17 05:46:14;;;;;;;4.88;2.35;;;;;;;;;;5050416;28;20106;-72
2022/09/17 05:48:40;;;;;;;5.75;1.23;;;;;;;;;;5051850;28;20029;-73
2022/09/17 05:51:06;;;;;;;1.67;0.93;;;;;;;;;;5054550;28;20056;-73
2022/09/17 05:53:32;;;;;;;1.50;1.20;;;;;;;;;;5054744;28;20037;-73
2022/09/17 05:55:58;;;;;;;2.90;1.00;;;;;;;;;;5053418;28;20107;-73
2022/09/17 05:58:24;;;;;;;6.65;1.40;;;;;;;;;;5054010;28;20045;-73
2022/09/17 06:00:51;;;;;;;2.45;1.38;;;;;;;;;;5054302;28;20044;-73
2022/09/17 06:03:17;;;;;;;1.85;0.98;;;;;;;;;;5054874;28;20021;-73
2022/09/17 06:05:44;;;;;;;6.47;1.20;;;;;;;;;;5054683;28;20029;-74
2022/09/17 06:08:10;;;;;;;3.20;1.10;;;;;;;;;;5053791;28;20021;-73
2022/09/17 06:10:37;;;;;;;4.38;1.13;;;;;;;;;;5054696;28;20518;-74
2022/09/17 06:13:03;;;;;;;2.88;1.42;;;;;;;;;;5054476;28;20032;-74
2022/09/17 06:15:29;;;;;;;2.25;1.20;;;;;;;;;;5051541;28;20371;-73
2022/09/17 06:17:55;;;;;;;2.17;1.05;;;;;;;;;;5050552;28;20079;-73
2022/09/17 06:20:21;;;;;;;2.78;1.42;;;;;;;;;;5054199;28;20504;-73
2022/09/17 06:22:47;;;;;;;1.73;1.10;;;;;;;;;;5052925;28;20017;-73
2022/09/17 06:25:13;;;;;;;1.10;0.90;;;;;;;;;;5052035;28;20111;-73
2022/09/17 06:27:39;;;;;;;4.18;1.40;;;;;;;;;;5051021;28;20482;-74
2022/09/17 06:30:06;;;;;;;1.65;0.75;;;;;;;;;;5057703;28;20039;-73
2022/09/17 06:32:32;;;;;;;0.98;0.63;;;;;;;;;;5057050;28;20380;-73
2022/09/17 06:34:58;;;;;;;2.17;0.93;;;;;;;;;;5052072;28;20021;-73
2022/09/17 06:37:28;;;;;;;3.03;1.10;;;;;;;;;;5051629;28;20053;-73
2022/09/17 06:39:54;;;;;;;0.82;0.60;;;;;;;;;;5051702;28;20025;-73
2022/09/17 06:42:19;;;;;;;3.05;0.85;;;;;;;;;;5052029;28;20505;-72
2022/09/17 06:44:45;;;;;;;1.27;1.08;;;;;;;;;;5051975;28;20025;-72
2022/09/17 06:47:12;;;;;;;1.45;0.70;;;;;;;;;;5051606;28;20074;-73
2022/09/17 06:49:38;;;;;;;3.00;0.75;;;;;;;;;;5062932;28;20558;-72
2022/09/17 06:52:04;;;;;;;14.50;6.75;;;;;;;;;;5057068;28;20104;-73
2022/09/17 06:54:30;;;;;;;3.83;1.10;;;;;;;;;;5064809;28;20025;-72
2022/09/17 06:56:56;;;;;;;4.97;2.13;;;;;;;;;;5053531;28;20072;-72
2022/09/17 06:59:22;;;;;;;0.40;0.40;;;;;;;;;;5056185;28;20013;-72
2022/09/17 07:01:48;;;;;;;0.40;0.40;;;;;;;;;;5060949;28;20055;-72
2022/09/17 07:04:16;;;;;;;1.88;0.88;;;;;;;;;;5051715;28;20028;-73
2022/09/17 07:06:43;;;;;;;2.05;0.50;;;;;;;;;;5052849;28;20029;-72
2022/09/17 07:09:09;;;;;;;1.48;0.60;;;;;;;;;;5052498;28;20029;-72
2022/09/17 07:11:35;;;;;;;0.40;0.40;;;;;;;;;;5061099;28;20364;-73
2022/09/17 07:14:03;;;;;;;1.48;0.57;;;;;;;;;;5067214;28;20112;-72
2022/09/17 07:16:31;;;;;;;0.88;0.57;;;;;;;;;;5052719;28;20390;-73
2022/09/17 07:18:57;;;;;;;0.73;0.55;;;;;;;;;;5060550;28;20013;-73
2022/09/17 07:21:23;;;;;;;0.63;0.63;;;;;;;;;;5062941;28;20098;-73
2022/09/17 07:23:50;;;;;;;3.78;0.90;;;;;;;;;;5068430;28;20032;-73
2022/09/17 07:26:17;;;;;;;3.13;1.75;;;;;;;;;;5053516;28;20031;-73
2022/09/17 07:28:43;;;;;;;5.95;1.95;;;;;;;;;;5056264;28;20532;-72
2022/09/17 07:31:09;;;;;;;7.47;2.88;;;;;;;;;;5056650;28;20039;-73
2022/09/17 07:33:36;;;;;;;9.85;3.42;;;;;;;;;;5054470;28;20063;-74
2022/09/17 07:36:04;;;;;;;6.78;3.55;;;;;;;;;;5053970;28;20473;-74
2022/09/17 07:38:31;;;;;;;12.57;3.92;;;;;;;;;;5053961;28;20044;-75
2022/09/17 07:40:57;;;;;;;11.25;4.50;;;;;;;;;;5053256;28;20032;-74
2022/09/17 07:43:25;;;;;;;12.18;4.32;;;;;;;;;;5051733;28;20013;-74
2022/09/17 07:45:52;;;;;;;10.23;4.43;;;;;;;;;;5052362;28;20028;-73
2022/09/17 07:48:18;;;;;;;10.77;4.55;;;;;;;;;;5050344;28;20032;-75
2022/09/17 07:50:44;;;;;;;15.13;7.15;;;;;;;;;;5049085;28;20103;-74
2022/09/17 07:53:10;;;;;;;10.75;5.00;;;;;;;;;;5050170;28;20070;-74
2022/09/17 07:55:36;;;;;;;10.35;4.22;;;;;;;;;;5049150;28;20524;-74
2022/09/17 07:58:02;;;;;;;15.48;5.05;;;;;;;;;;5049629;28;20033;-74
2022/09/17 08:00:28;;;;;;;17.55;6.57;;;;;;;;;;5047979;28;20471;-75
2022/09/17 08:02:54;;;;;;;13.60;5.70;;;;;;;;;;5048252;28;20537;-75
2022/09/17 08:05:20;;;;;;;16.92;4.95;;;;;;;;;;5050808;28;20471;-74
2022/09/17 08:07:49;;;;;;;13.60;4.13;;;;;;;;;;5051129;28;20024;-74
2022/09/17 08:10:15;;;;;;;13.48;5.18;;;;;;;;;;5052396;28;20038;-74
2022/09/17 08:12:41;;;;;;;10.40;4.65;;;;;;;;;;5051755;28;20029;-74
2022/09/17 08:15:07;;;;;;;11.73;4.22;;;;;;;;;;5052038;28;20029;-74
2022/09/17 08:17:33;;;;;;;13.73;3.63;;;;;;;;;;5049876;28;20474;-74
2022/09/17 08:20:00;;;;;;;17.45;4.93;;;;;;;;;;5063505;28;20027;-75
2022/09/17 08:22:26;;;;;;;38.58;20.85;;;;;;;;;;5055910;28;20036;-73
2022/09/17 08:24:52;;;;;;;15.65;7.03;;;;;;;;;;5059804;28;20040;-73
2022/09/17 08:27:18;;;;;;;22.10;8.73;;;;;;;;;;5050311;28;20032;-73
2022/09/17 08:29:44;;;;;;;10.27;3.53;;;;;;;;;;5056816;28;20013;-73
2022/09/17 08:32:10;;;;;;;15.32;4.03;;;;;;;;;;5051572;28;20510;-73
2022/09/17 08:34:36;;;;;;;9.05;3.13;;;;;;;;;;5049766;28;20059;-73
2022/09/17 08:37:03;;;;;;;14.00;3.85;;;;;;;;;;5051002;28;20028;-73
2022/09/17 08:39:28;;;;;;;17.77;4.78;;;;;;;;;;5050790;28;20387;-72
2022/09/17 08:42:01;;;;;;;14.70;4.22;;;;;;;;;;5049958;28;20033;-73
2022/09/17 08:44:31;;;;;;;12.60;3.05;;;;;;;;;;5049664;28;20434;-73
2022/09/17 08:46:58;;;;;;;12.70;3.22;;;;;;;;;;5051101;28;20031;-73
2022/09/17 08:49:27;;;;;;;12.20;3.80;;;;;;;;;;5049185;28;20504;-73
2022/09/17 08:51:57;;;;;;;14.48;3.17;;;;;;;;;;5050970;28;20029;-74
2022/09/17 08:54:23;;;;;;;11.52;3.35;;;;;;;;;;5050448;28;20040;-74
2022/09/17 08:56:54;;;;;;;12.48;3.97;;;;;;;;;;5050900;28;20029;-72
2022/09/17 08:59:34;;;;;;;10.10;2.58;;;;;;;;;;5049981;28;20028;-73
2022/09/17 09:02:15;;;;;;;11.50;3.38;;;;;;;;;;5051204;28;20115;-73
2022/09/17 09:04:44;;;;;;;11.67;2.97;;;;;;;;;;5050635;28;20032;-73
2022/09/17 09:07:13;;;;;;;10.55;2.92;;;;;;;;;;5050090;28;20214;-73
2022/09/17 09:09:50;;;;;;;9.77;2.88;;;;;;;;;;5051967;28;20017;-74
2022/09/17 09:12:25;;;;;;;8.57;2.10;;;;;;;;;;5051259;28;20021;-73
2022/09/17 09:14:57;;;;;;;9.48;2.42;;;;;;;;;;5050753;28;20013;-73
2022/09/17 09:17:25;;;;;;;12.35;2.72;;;;;;;;;;5050139;28;20033;-73
2022/09/17 09:19:53;;;;;;;8.07;2.88;;;;;;;;;;5049687;28;20052;-73
2022/09/17 09:22:45;;;;;;;10.07;3.55;;;;;;;;;;5050963;28;20040;-74
2022/09/17 09:25:26;;;;;;;10.85;2.72;;;;;;;;;;5073920;22;20053;-74
2022/09/17 09:27:52;;;;;;;10.20;2.80;;;;;;;;;;5049730;28;20033;-73
2022/09/17 09:30:22;;;;;;;10.38;4.53;;;;;;;;;;5058065;28;20024;-74
2022/09/17 09:33:00;;;;;;;8.00;2.42;;;;;;;;;;5050555;28;20036;-74
2022/09/17 09:35:27;;;;;;;14.55;4.25;;;;;;;;;;5040247;28;20391;-74
2022/09/17 09:37:56;;;;;;;10.13;2.88;;;;;;;;;;5029830;28;20494;-74
2022/09/17 09:40:31;;;;;;;8.80;2.63;;;;;;;;;;5031324;28;20034;-73
2022/09/17 09:43:00;;;;;;;13.02;2.20;;;;;;;;;;5029279;28;20428;-73
2022/09/17 09:45:39;;;;;;;9.82;2.33;;;;;;;;;;5030523;28;20033;-74
2022/09/17 09:48:44;;;;;;;7.68;1.55;;;;;;;;;;5029906;28;20116;-73
2022/09/17 09:51:15;;;;;;;11.40;2.38;;;;;;;;;;5008491;28;20128;-72
2022/09/17 09:53:50;;;;;;;8.02;2.13;;;;;;;;;;5008846;28;21375;-74
2022/09/17 09:56:31;;;;;;;8.38;1.73;;;;;;;;;;5021077;28;20030;-72
2022/09/17 09:58:57;;;;;;;3.45;1.35;;;;;;;;;;5035337;28;20028;-72
2022/09/17 10:01:26;;;;;;;6.68;1.83;;;;;;;;;;5032018;28;20037;-73
2022/09/17 10:03:54;;;;;;;6.65;1.85;;;;;;;;;;5029082;28;20395;-76
2022/09/17 10:06:20;;;;;;;4.65;1.83;;;;;;;;;;5033340;28;20071;-74
2022/09/17 10:08:49;;;;;;;9.05;2.50;;;;;;;;;;5039062;28;20087;-73
2022/09/17 10:11:29;;;;;;;6.65;2.00;;;;;;;;;;5041955;28;20025;-73
2022/09/17 10:14:15;;;;;;;9.32;1.58;;;;;;;;;;5038609;28;20044;-76
2022/09/17 10:16:41;;;;;;;6.18;1.77;;;;;;;;;;5042443;28;20570;-73
2022/09/17 10:19:12;;;;;;;5.13;1.13;;;;;;;;;;5030498;28;20021;-76
2022/09/17 10:21:44;;;;;;;;;;;;;;;;;;5030718;28;20559;-72
2022/09/17 10:24:10;;;;;;;;;;;;;;;;;;5030847;28;20395;-74
2022/09/17 10:26:36;;;;;;;10.27;1.48;;;;;;;;;;5030532;28;19905;-73
2022/09/17 10:29:04;;;;;;;6.93;1.70;;;;;;;;;;5048963;28;20029;-74
2022/09/17 10:31:47;;;;;;;7.07;1.30;;;;;;;;;;5044358;28;20048;-75
2022/09/17 10:34:39;;;;;;;6.00;1.67;;;;;;;;;;5042601;28;20021;-74
2022/09/17 10:37:05;;;;;;;7.93;2.35;;;;;;;;;;5031503;28;20037;-76
2022/09/17 10:39:37;;;;;;;10.18;1.92;;;;;;;;;;5034078;28;20043;-74
2022/09/17 10:42:21;;;;;;;7.60;1.70;;;;;;;;;;5034487;28;20030;-75
2022/09/17 10:44:51;;;;;;;6.60;1.60;;;;;;;;;;5047580;28;20057;-75
2022/09/17 10:47:23;;;;;;;9.05;2.35;;;;;;;;;;5033741;28;20467;-75
2022/09/17 10:49:53;;;;;;;9.00;1.58;;;;;;;;;;5033853;28;20025;-74
2022/09/17 10:52:22;;;;;;;6.68;1.40;;;;;;;;;;5045152;28;20119;-74
2022/09/17 10:54:57;;;;;;;4.95;1.10;;;;;;;;;;5034515;28;20018;-75
2022/09/17 10:57:35;;;;;;;4.40;1.25;;;;;;;;;;5033254;28;20029;-76
2022/09/17 11:00:12;;;;;;;7.72;1.67;;;;;;;;;;5041245;28;20027;-73
2022/09/17 11:03:05;;;;;;;4.88;1.38;;;;;;;;;;5034939;28;20084;-74
2022/09/17 11:05:49;;;;;;;8.23;1.52;;;;;;;;;;5042069;28;20022;-75
2022/09/17 11:08:18;;;;;;;7.72;1.52;;;;;;;;;;5039251;28;20094;-74
2022/09/17 11:10:44;;;;;;;4.72;1.40;;;;;;;;;;5040400;28;20025;-74
2022/09/17 11:13:29;;;;;;;4.80;1.65;;;;;;;;;;5037435;28;20364;-73
2022/09/17 11:16:13;;;;;;;6.78;1.77;;;;;;;;;;5052339;28;20060;-75
2022/09/17 11:18:58;;;;;;;4.28;1.50;;;;;;;;;;5031332;28;20030;-73
2022/09/17 11:21:33;;;;;;;6.97;2.45;;;;;;;;;;5031627;28;20145;-75
2022/09/17 11:24:02;;;;;;;4.38;1.10;;;;;;;;;;5031743;28;20061;-75
2022/09/17 11:26:47;;;;;;;9.82;2.92;;;;;;;;;;5037339;28;20111;-74
2022/09/17 11:29:25;;;;;;;13.98;5.32;;;;;;;;;;5044188;28;20029;-76
2022/09/17 11:31:54;;;;;;;6.82;3.30;;;;;;;;;;5032143;28;20560;-76
2022/09/17 11:34:20;;;;;;;7.82;2.42;;;;;;;;;;5032723;28;20041;-74
2022/09/17 11:37:19;;;;;;;7.70;1.52;;;;;;;;;;5031895;28;20435;-73
2022/09/17 11:39:57;;;;;;;14.38;6.22;;;;;;;;;;5020632;28;20060;-73
2022/09/17 11:42:42;;;;;;;84.88;39.58;;;;;;;;;;5033432;28;20033;-75
2022/09/17 11:45:19;;;;;;;9.40;3.13;;;;;;;;;;5039709;28;20035;-75
2022/09/17 11:47:49;;;;;;;12.95;4.60;;;;;;;;;;5034635;28;20061;-75
2022/09/17 11:50:37;;;;;;;33.53;15.25;;;;;;;;;;5042301;28;20414;-77
2022/09/17 11:53:19;;;;;;;24.63;10.40;;;;;;;;;;5041143;28;20041;-76
2022/09/17 11:55:48;;;;;;;7.82;2.30;;;;;;;;;;5037534;28;20021;-74
2022/09/17 11:58:20;;;;;;;19.08;6.45;;;;;;;;;;5035083;28;20117;-75
2022/09/17 12:00:50;;;;;;;5.05;1.40;;;;;;;;;;5036159;28;20471;-76
2022/09/17 12:03:29;;;;;;;7.25;1.42;;;;;;;;;;5036696;28;20105;-77
2022/09/17 12:05:57;;;;;;;7.68;2.33;;;;;;;;;;5038075;28;20521;-77
2022/09/17 12:08:29;;;;;;;9.55;2.25;;;;;;;;;;5048113;28;20088;-76
2022/09/17 12:11:18;;;;;;;6.95;1.70;;;;;;;;;;5047193;28;20437;-76
2022/09/17 12:13:44;;;;;;;10.65;2.50;;;;;;;;;;5042490;28;20025;-77
2022/09/17 12:16:13;;;;;;;7.88;1.75;;;;;;;;;;5035796;28;20506;-76
2022/09/17 12:18:42;;;;;;;5.88;1.67;;;;;;;;;;5031629;28;20489;-77
2022/09/17 12:21:09;;;;;;;8.27;1.75;;;;;;;;;;5032340;28;20501;-76
2022/09/17 12:23:44;;;;;;;7.97;1.67;;;;;;;;;;5035165;28;20060;-77
2022/09/17 12:26:26;;;;;;;5.30;1.67;;;;;;;;;;5037311;28;20039;-75
2022/09/17 12:29:10;;;;;;;7.68;2.42;;;;;;;;;;5049064;28;20082;-76
2022/09/17 12:31:47;;;;;;;14.10;4.97;;;;;;;;;;5032532;28;20549;-76
2022/09/17 12:34:28;;;;;;;15.13;5.50;;;;;;;;;;5045932;28;20049;-75
2022/09/17 12:37:07;;;;;;;5.93;1.95;;;;;;;;;;5032796;28;20024;-76
2022/09/17 12:39:36;;;;;;;7.25;2.65;;;;;;;;;;5030629;28;20018;-76
2022/09/17 12:42:10;;;;;;;13.77;3.78;;;;;;;;;;5031866;28;20029;-76
2022/09/17 12:44:36;;;;;;;7.85;2.25;;;;;;;;;;5034502;28;20025;-76
2022/09/17 12:47:06;;;;;;;7.40;2.13;;;;;;;;;;5031074;28;20443;-75
2022/09/17 12:49:32;;;;;;;8.80;2.40;;;;;;;;;;5031933;28;20533;-76
2022/09/17 12:52:08;;;;;;;8.57;1.67;;;;;;;;;;5032030;28;20095;-75
2022/09/17 12:54:57;;;;;;;8.93;2.17;;;;;;;;;;5031967;28;20029;-76
2022/09/17 12:57:32;;;;;;;16.70;4.97;;;;;;;;;;5028911;28;20416;-75
2022/09/17 13:00:04;;;;;;;10.48;3.03;;;;;;;;;;5039184;28;20029;-75
2022/09/17 13:02:34;;;;;;;12.48;2.40;;;;;;;;;;5031889;28;20029;-75
2022/09/17 13:05:19;;;;;;;9.30;2.78;;;;;;;;;;5030365;28;20030;-76
2022/09/17 13:07:44;;;;;;;3.97;1.45;;;;;;;;;;5030582;28;20099;-75
2022/09/17 13:10:29;;;;;;;7.40;2.25;;;;;;;;;;5039872;28;20064;-76
2022/09/17 13:13:01;;;;;;;14.35;4.05;;;;;;;;;;5033791;28;20071;-77
2022/09/17 13:15:33;;;;;;;3.70;1.40;;;;;;;;;;5031164;28;20029;-76
2022/09/17 13:18:15;;;;;;;13.57;3.53;;;;;;;;;;5030551;28;20025;-76
2022/09/17 13:20:44;;;;;;;12.98;2.83;;;;;;;;;;5031342;28;20071;-75
2022/09/17 13:23:11;;;;;;;8.13;1.77;;;;;;;;;;5030760;28;20071;-76
2022/09/17 13:25:49;;;;;;;7.93;1.80;;;;;;;;;;5031096;28;20030;-76
2022/09/17 13:28:15;;;;;;;6.10;1.15;;;;;;;;;;5030666;28;20029;-75
2022/09/17 13:30:54;;;;;;;6.30;1.90;;;;;;;;;;5031391;28;20360;-76
2022/09/17 13:33:53;;;;;;;6.97;1.27;;;;;;;;;;5037955;28;20460;-76
2022/09/17 13:36:38;;;;;;;4.28;0.70;;;;;;;;;;4978481;28;20030;-74
2022/09/17 13:39:07;;;;;;;3.67;1.20;;;;;;;;;;5029553;28;20018;-76
2022/09/17 13:41:38;;;;;;;4.00;0.77;;;;;;;;;;5030880;28;20029;-77
2022/09/17 13:44:05;;;;;;;5.65;1.20;;;;;;;;;;5030618;28;20097;-75
2022/09/17 13:46:35;;;;;;;5.75;1.13;;;;;;;;;;5030696;28;20025;-75
2022/09/17 13:49:21;;;;;;;6.32;1.27;;;;;;;;;;5030312;28;20084;-76
2022/09/17 13:51:48;;;;;;;2.90;1.13;;;;;;;;;;5038524;28;20033;-76
2022/09/17 13:54:15;;;;;;;4.00;1.33;;;;;;;;;;5049937;28;20021;-76
2022/09/17 13:56:46;;;;;;;3.72;1.27;;;;;;;;;;5029257;28;20108;-75
2022/09/17 13:59:15;;;;;;;4.38;1.38;;;;;;;;;;5035701;28;20113;-75
2022/09/17 14:02:00;;;;;;;6.20;1.10;;;;;;;;;;5038024;28;20017;-75
2022/09/17 14:04:35;;;;;;;5.50;1.08;;;;;;;;;;5034368;28;20057;-76
2022/09/17 14:07:27;;;;;;;5.75;1.38;;;;;;;;;;5029191;28;20488;-75
2022/09/17 14:09:53;;;;;;;12.38;3.45;;;;;;;;;;5031202;28;20025;-75
2022/09/17 14:12:47;;;;;;;8.32;2.90;;;;;;;;;;5034378;28;20029;-75
2022/09/17 14:15:31;;;;;;;27.38;13.95;;;;;;;;;;5042941;28;20025;-75
2022/09/17 14:17:57;;;;;;;6.47;1.40;;;;;;;;;;5039650;28;20104;-74
2022/09/17 14:20:24;;;;;;;4.63;1.45;;;;;;;;;;5044308;28;20021;-76
2022/09/17 14:23:00;;;;;;;8.27;2.30;;;;;;;;;;5034067;28;20037;-77
2022/09/17 14:25:36;;;;;;;7.30;2.15;;;;;;;;;;5044530;28;20043;-77
2022/09/17 14:28:06;;;;;;;7.18;1.50;;;;;;;;;;5035203;28;20041;-76
2022/09/17 14:30:33;;;;;;;6.50;1.80;;;;;;;;;;5040243;28;20029;-77
2022/09/17 14:33:06;;;;;;;6.65;1.90;;;;;;;;;;5033842;28;20403;-76
2022/09/17 14:35:43;;;;;;;12.70;2.28;;;;;;;;;;5032476;28;20025;-76
2022/09/17 14:38:24;;;;;;;7.25;2.15;;;;;;;;;;5033725;28;20026;-75
2022/09/17 14:40:56;;;;;;;12.32;1.85;;;;;;;;;;5034147;28;20411;-76
2022/09/17 14:43:25;;;;;;;7.90;1.73;;;;;;;;;;5034136;28;20036;-76
2022/09/17 14:45:52;;;;;;;7.55;2.05;;;;;;;;;;5033782;28;20032;-76
2022/09/17 14:48:31;;;;;;;12.27;1.50;;;;;;;;;;5031877;28;20490;-75
2022/09/17 14:51:16;;;;;;;11.05;2.17;;;;;;;;;;5035354;28;20023;-75
2022/09/17 14:53:43;;;;;;;8.50;1.48;;;;;;;;;;5043812;28;20695;-76
2022/09/17 14:56:14;;;;;;;8.80;1.58;;;;;;;;;;5033746;28;20029;-76
2022/09/17 14:58:43;;;;;;;12.75;1.83;;;;;;;;;;5036751;28;20025;-75
2022/09/17 15:01:29;;;;;;;7.45;2.58;;;;;;;;;;5036602;28;20502;-76
2022/09/17 15:04:13;;;;;;;9.57;3.03;;;;;;;;;;5032878;28;20087;-74